• Join FlightAware (Why Join?)
  • Login
  • US Flag 
Rudolph Flight #1: Scheduled 
11:50PM EST


 

Airport Tracker/Info


-or-


 

Live Flight TrackerFlight Track Log ✈ DAL1331 ✈ 12-Jun-2013 ✈ KMSP - KBWI

Flight Track Log - Related Links

Times and Time Zones

All times are in EDT time to prevent confusion due to time zone crossing. See the DAL1331 flight status page for this flight to view local times or setup timezone preferences in your user account.

Time Position Orientation Groundspeed Altitude Reporting Facility
EDT Latitude Longitude Course Direction KTS MPH feet Rate Location/Type
04:47PM 44.8833 -93.3000 137° Southeast 211 243 2,600  Level Minneapolis TRACON
04:48PM 44.8875 -93.3228 284° West 232 267 3,000 2,280 Climbing Minneapolis Center
04:49PM 44.8553 -93.4175 244° Southwest 280 322 6,000 2,160 Climbing Minneapolis Center
04:50PM 44.7074 -92.5236 115° Southeast  Level Estimated
04:50PM 44.7700 -93.4686 203° Southwest 293 337 7,500  Level Minneapolis Center
04:51PM 44.6631 -92.3497 117° Southeast  Level Estimated
04:51PM 44.7078 -93.4139 148° Southeast 304 350 10,500  Level Minneapolis Center
04:52PM 44.5675 -92.2231 137° Southeast  Level FlightAware Approximate
04:52PM 44.6975 -93.2872 96° East 343 395 11,600  Level Minneapolis Center
04:53PM 44.6736 -93.1108 101° East 406 467 13,400 2,160 Climbing Minneapolis Center
04:54PM 44.6314 -92.9647 112° Southeast 405 466 16,200 1,860 Climbing Minneapolis Center
04:55PM 44.5858 -92.8147 113° Southeast 424 488 17,300 1,200 Climbing Minneapolis Center
04:56PM 44.5367 -92.6581 114° Southeast 438 504 18,800 1,440 Climbing Minneapolis Center
04:57PM 44.4831 -92.4953 115° Southeast 458 527 20,300 1,380 Climbing Minneapolis Center
04:58PM 44.4122 -92.3400 123° Southeast 472 543 21,700 1,380 Climbing Minneapolis Center
04:59PM 44.3128 -92.1683 129° Southeast 476 548 23,200 1,320 Climbing Minneapolis Center
05:00PM 44.2281 -92.0200 129° Southeast 486 559 24,600 1,260 Climbing Minneapolis Center
05:01PM 44.1428 -91.8714 129° Southeast 491 565 25,900 2,040 Climbing Minneapolis Center
05:02PM 44.0619 -91.7325 129° Southeast 474 545 28,900 1,740 Climbing Minneapolis Center
05:03PM 43.9742 -91.5811 129° Southeast 456 525 29,600 840 Climbing Minneapolis Center
05:04PM 43.9294 -91.4169 111° Southeast 468 539 30,700 660 Climbing Minneapolis Center
05:05PM 43.9322 -91.2367 89° East 470 541 31,000 120 Climbing Minneapolis Center
05:06PM 43.9589 -91.0256 80° East 470 541 31,000  Level Minneapolis Center
05:07PM 43.9814 -90.8450 80° East 475 547 31,000  Level Minneapolis Center
05:08PM 44.0056 -90.6647 79° East 477 549 31,000  Level Minneapolis Center
05:09PM 44.0269 -90.5594 74° East 479 551 31,000  Level Chicago Center
05:10PM 44.0753 -90.3511 72° East 475 547 31,000  Level Chicago Center
05:10PM 44.0886 -90.2844 74° East 475 547 31,000  Level Minneapolis Center
05:11PM 44.1297 -90.1092 72° East 477 549 31,000  Level Minneapolis Center
05:12PM 44.1697 -89.9322 72° East 478 550 31,000  Level Minneapolis Center
05:14PM 44.2106 -89.7547 72° East 483 556 31,000  Level Minneapolis Center
05:15PM 44.2606 -89.5806 68° East 487 560 31,000  Level Minneapolis Center
05:16PM 44.3364 -89.3892 61° Northeast 486 559 31,000  Level Minneapolis Center
05:17PM 44.4039 -89.2281 60° Northeast 484 557 31,000  Level Minneapolis Center
05:18PM 44.4622 -89.0594 64° Northeast 481 554 31,000  Level Minneapolis Center
05:19PM 44.4892 -88.8686 79° East 496 571 31,000  Level Minneapolis Center
05:20PM 44.5072 -88.6817 82° East 491 565 31,000  Level Minneapolis Center
05:21PM 44.5272 -88.4672 82° East 484 557 31,000  Level Minneapolis Center
05:22PM 44.5444 -88.2778 83° East 489 563 31,000  Level Minneapolis Center
05:23PM 44.5028 -88.1089 109° East 472 543 31,000  Level Minneapolis Center
05:24PM 44.4158 -87.9703 131° Southeast 474 545 31,000  Level Minneapolis Center
05:25PM 44.3286 -87.8342 132° Southeast 472 543 31,000  Level Minneapolis Center
05:26PM 44.2269 -87.6736 131° Southeast 472 543 31,000  Level Minneapolis Center
05:27PM 44.1381 -87.5342 132° Southeast 477 549 31,000  Level Minneapolis Center
05:28PM 44.0481 -87.3961 132° Southeast 480 552 31,000  Level Minneapolis Center
05:29PM 43.9589 -87.2578 132° Southeast 481 554 31,000  Level Minneapolis Center
05:30PM 43.8719 -87.1094 129° Southeast 481 554 31,000  Level Minneapolis Center
05:31PM 43.8247 -87.0208 126° Southeast 481 554 31,000  Level Chicago Center
05:32PM 43.7500 -86.8689 124° Southeast 480 552 31,000  Level Chicago Center
05:32PM 43.7211 -86.8061 122° Southeast 479 551 31,000  Level Minneapolis Center
05:33PM 43.6494 -86.6500 122° Southeast 481 554 31,000  Level Minneapolis Center
05:34PM 43.5906 -86.5258 123° Southeast 484 557 31,000  Level Chicago Center
05:35PM 43.5161 -86.3711 124° Southeast 483 556 31,000  Level Chicago Center
05:36PM 43.4414 -86.2161 124° Southeast 486 559 31,000  Level Chicago Center
05:37PM 43.3661 -86.0614 124° Southeast 484 557 31,000  Level Chicago Center
05:38PM 43.2908 -85.9042 123° Southeast 486 559 31,000  Level Chicago Center
05:39PM 43.2128 -85.7469 124° Southeast 490 564 31,000  Level Chicago Center
05:40PM 43.1203 -85.5597 124° Southeast 489 563 31,000  Level Chicago Center
05:41PM 43.0447 -85.4067 124° Southeast 485 558 31,000  Level Chicago Center
05:42PM 42.9697 -85.2550 124° Southeast 482 555 31,000  Level Chicago Center
05:43PM 42.8942 -85.1008 124° Southeast 486 559 31,000  Level Chicago Center
05:44PM 42.8183 -84.9483 124° Southeast 486 559 31,000  Level Chicago Center
05:45PM 42.7411 -84.7944 124° Southeast 491 565 31,000  Level Chicago Center
05:46PM 42.6647 -84.6408 124° Southeast 490 564 31,000  Level Chicago Center
05:47PM 42.5722 -84.4578 124° Southeast 492 566 31,000  Level Chicago Center
05:48PM 42.4944 -84.3053 125° Southeast 492 566 31,000  Level Chicago Center
05:49PM 42.4161 -84.1522 125° Southeast 494 568 31,000  Level Chicago Center
05:50PM 42.3181 -83.9839 128° Southeast 493 567 31,000  Level Cleveland Center
05:51PM 42.2392 -83.8311 125° Southeast 493 567 31,000  Level Cleveland Center
05:52PM 42.1658 -83.6983 127° Southeast 493 567 31,000  Level Cleveland Center
05:53PM 42.0806 -83.5292 124° Southeast 498 573 31,000  Level Cleveland Center
05:54PM 42.0008 -83.3803 126° Southeast 493 567 31,000  Level Cleveland Center
05:55PM 41.9231 -83.2289 125° Southeast 493 567 31,000  Level Cleveland Center
05:56PM 41.8514 -83.0864 124° Southeast 504 580 31,000  Level Cleveland Center
05:57PM 41.7711 -82.9358 126° Southeast 504 580 31,000  Level Cleveland Center
05:58PM 41.6908 -82.7856 126° Southeast 504 580 31,000  Level Cleveland Center
05:59PM 41.6061 -82.6214 125° Southeast 504 580 31,000  Level Cleveland Center
06:00PM 41.5336 -82.4861 126° Southeast 504 580 31,000  Level Cleveland Center
06:01PM 41.4503 -82.3367 127° Southeast 498 573 31,000  Level Cleveland Center
06:02PM 41.3669 -82.1906 127° Southeast 503 579 31,000  Level Cleveland Center
06:03PM 41.2711 -82.0364 130° Southeast 503 579 31,000  Level Cleveland Center
06:04PM 41.1747 -81.8989 133° Southeast 498 573 31,000  Level Cleveland Center
06:05PM 41.0844 -81.7786 135° Southeast 503 579 31,000  Level Cleveland Center
06:06PM 40.9919 -81.6394 131° Southeast 503 579 31,000  Level Cleveland Center
06:07PM 40.8972 -81.5033 133° Southeast 503 579 31,000  Level Cleveland Center
06:08PM 40.8044 -81.3675 132° Southeast 498 573 31,000  Level Cleveland Center
06:09PM 40.7094 -81.2322 133° Southeast 503 579 31,000  Level Cleveland Center
06:10PM 40.6164 -81.0972 132° Southeast 503 579 31,000  Level Cleveland Center
06:11PM 40.5147 -80.9492 132° Southeast 498 573 31,000  Level Cleveland Center
06:12PM 40.4192 -80.8150 133° Southeast 498 573 31,000  Level Cleveland Center
06:13PM 40.3214 -80.6783 133° Southeast 504 580 31,000  Level Cleveland Center
06:14PM 40.2339 -80.5558 133° Southeast 504 580 31,000  Level Cleveland Center
06:15PM 40.1400 -80.4256 133° Southeast 504 580 31,000  Level Cleveland Center
06:16PM 40.0439 -80.2903 133° Southeast 504 580 31,000  Level Cleveland Center
06:17PM 39.9475 -80.1578 133° Southeast 504 580 31,000  Level Cleveland Center
06:18PM 39.8614 -80.0150 128° Southeast 499 574 31,000  Level Cleveland Center
06:21PM 39.7833 -79.6336 105° East 487 560 31,000  Level Washington Center
06:22PM 39.7475 -79.4589 105° East 500 575 31,000 -1,140 Level Washington Center
06:23PM 39.7092 -79.2869 106° East 500 575 28,800 -2,820 Descending Washington Center
06:24PM 39.6728 -79.1097 105° East 500 575 25,400 -2,760 Descending Washington Center
06:25PM 39.6325 -78.9164 105° East 505 581 23,300 -1,860 Descending Washington Center
06:26PM 39.5933 -78.7450 106° East 500 575 21,700 -1,380 Descending Washington Center
06:27PM 39.5558 -78.5819 107° East 490 564 20,600 -1,740 Descending Washington Center
06:28PM 39.5200 -78.4189 106° East 477 549 18,300 -2,460 Descending Washington Center
06:29PM 39.4842 -78.2642 107° East 471 542 15,700 -1,680 Descending Washington Center
06:30PM 39.4497 -78.1097 106° East 451 519 15,000 -480 Descending Washington Center
06:31PM 39.4236 -77.9583 103° East 437 503 14,800 -900 Descending Washington Center
06:32PM 39.4244 -77.8081 90° East 421 484 13,300 -1,380 Descending Washington Center
06:33PM 39.4286 -77.6900 87° East 421 484 12,100 -1,200 Descending Washington Center
06:34PM 39.4356 -77.5342 87° East 410 472 11,000 -600 Descending Washington Center
06:35PM 39.4419 -77.3919 87° East 404 465 11,000  Level Washington Center
06:36PM 39.4667 -77.2500 77° East 392 451 11,000  Level Potomac TRACON
06:37PM 39.4833 -77.1000 82° East 389 448 11,000 -420 Level Potomac TRACON
06:38PM 39.4667 -76.9667 99° East 382 440 10,200 -900 Descending Potomac TRACON
06:39PM 39.4500 -76.8500 100° East 334 384 9,200 -1,200 Descending Potomac TRACON
06:40PM 39.4167 -76.7333 110° East 332 382 8,000 -780 Descending Potomac TRACON
06:41PM 39.4000 -76.6167 100° East 328 377 7,700 -720 Descending Potomac TRACON
06:42PM 39.3833 -76.5167 102° East 309 356 6,600 -1,380 Descending Potomac TRACON
06:43PM 39.3167 -76.4500 142° Southeast 297 342 4,800 -1,860 Descending Potomac TRACON
06:44PM 39.2500 -76.4833 201° Southwest 259 298 2,700 -1,500 Descending Potomac TRACON
06:45PM 39.2000 -76.5000 194° South 233 268 2,000 -420 Descending Potomac TRACON
06:46PM 39.1333 -76.5167 191° South 214 246 2,000  Level Potomac TRACON